createdAt,value
2018-06-21T00:00:36.541Z,0.00
2018-06-21T00:01:36.512Z,0.00
2018-06-21T00:02:36.480Z,0.00
2018-06-21T00:03:36.455Z,0.00
2018-06-21T00:04:36.419Z,0.00
2018-06-21T00:05:36.391Z,0.00
2018-06-21T00:06:36.378Z,0.00
2018-06-21T00:07:36.324Z,0.00
2018-06-21T00:08:36.294Z,0.00
2018-06-21T00:09:36.289Z,0.00
2018-06-21T00:10:36.230Z,0.00
2018-06-21T00:11:36.197Z,0.00
2018-06-21T00:12:36.220Z,0.00
2018-06-21T00:13:36.156Z,0.00
2018-06-21T00:14:36.129Z,0.00
2018-06-21T00:15:36.067Z,0.00
2018-06-21T00:16:36.039Z,0.00
2018-06-21T00:17:36.008Z,0.00
2018-06-21T00:18:36.064Z,0.00
2018-06-21T00:19:35.952Z,0.00
2018-06-21T00:20:35.937Z,0.00
2018-06-21T00:21:35.906Z,0.00
2018-06-21T00:22:35.870Z,0.00
2018-06-21T00:23:35.819Z,0.00
2018-06-21T00:24:35.787Z,0.00
2018-06-21T00:25:35.756Z,0.00
2018-06-21T00:26:35.724Z,0.00
2018-06-21T00:27:35.688Z,0.00
2018-06-21T00:28:35.665Z,0.00
2018-06-21T00:29:35.646Z,0.00
2018-06-21T00:30:35.599Z,0.00
2018-06-21T00:31:35.577Z,0.00
2018-06-21T00:32:35.535Z,0.00
2018-06-21T00:33:35.507Z,0.00
2018-06-21T00:34:35.477Z,0.00
2018-06-21T00:35:35.438Z,0.00
2018-06-21T00:36:35.408Z,0.00
2018-06-21T00:37:35.379Z,0.00
2018-06-21T00:38:35.349Z,0.00
2018-06-21T00:39:35.318Z,0.00
2018-06-21T00:40:35.320Z,0.00
2018-06-21T00:41:35.254Z,0.00
2018-06-21T00:42:35.224Z,0.00
2018-06-21T00:43:35.194Z,0.00
2018-06-21T00:44:35.161Z,0.00
2018-06-21T00:45:35.123Z,0.00
2018-06-21T00:46:35.095Z,0.00
2018-06-21T00:47:35.070Z,0.00
2018-06-21T00:48:35.040Z,0.00
2018-06-21T00:49:34.999Z,0.00
2018-06-21T00:50:34.975Z,0.00
2018-06-21T00:51:34.938Z,0.00
2018-06-21T00:52:34.907Z,0.00
2018-06-21T00:53:34.875Z,0.00
2018-06-21T00:54:34.845Z,0.00
2018-06-21T00:55:34.818Z,0.00
2018-06-21T00:56:34.782Z,0.00
2018-06-21T00:57:34.750Z,0.00
2018-06-21T00:58:34.717Z,0.00
2018-06-21T00:59:34.687Z,0.00
2018-06-21T01:00:34.694Z,0.00
2018-06-21T01:01:34.625Z,0.00
2018-06-21T01:02:34.591Z,0.00
2018-06-21T01:03:34.563Z,0.00
2018-06-21T01:04:34.530Z,0.00
2018-06-21T01:05:34.497Z,0.00
2018-06-21T01:06:34.466Z,0.00
2018-06-21T01:07:34.449Z,0.00
2018-06-21T01:08:34.402Z,0.00
2018-06-21T01:09:34.372Z,0.00
2018-06-21T01:10:34.339Z,0.00
2018-06-21T01:11:34.312Z,0.00
2018-06-21T01:12:34.276Z,0.00
2018-06-21T01:13:34.244Z,0.00
2018-06-21T01:14:34.208Z,0.00
2018-06-21T01:15:34.185Z,0.00
2018-06-21T01:16:34.151Z,0.00
2018-06-21T01:17:34.112Z,0.00
2018-06-21T01:18:34.088Z,0.00
2018-06-21T01:19:34.057Z,0.00
2018-06-21T01:20:34.021Z,0.00
2018-06-21T01:21:34.014Z,0.00
2018-06-21T01:22:33.960Z,0.00
2018-06-21T01:23:33.945Z,0.00
2018-06-21T01:24:33.897Z,0.00
2018-06-21T01:25:33.864Z,0.00
2018-06-21T01:26:33.834Z,0.00
2018-06-21T01:27:33.800Z,0.00
2018-06-21T01:28:33.788Z,0.00
2018-06-21T01:29:33.737Z,0.00
2018-06-21T01:30:33.707Z,0.00
2018-06-21T01:31:33.673Z,0.00
2018-06-21T01:32:33.655Z,0.00
2018-06-21T01:33:33.608Z,0.00
2018-06-21T01:34:33.579Z,0.00
2018-06-21T01:35:33.547Z,0.00
2018-06-21T01:36:33.511Z,0.00
2018-06-21T01:37:33.486Z,0.00
2018-06-21T01:38:33.455Z,0.00
2018-06-21T01:39:33.417Z,0.00
2018-06-21T01:40:33.386Z,0.00
2018-06-21T01:41:33.355Z,0.00
2018-06-21T01:42:33.323Z,0.00
2018-06-21T01:43:33.301Z,0.00
2018-06-21T01:44:33.284Z,0.00
2018-06-21T01:45:33.226Z,0.00
2018-06-21T01:46:33.199Z,0.00
2018-06-21T01:47:33.177Z,0.00
2018-06-21T01:48:33.131Z,0.00
2018-06-21T01:49:33.104Z,0.00
2018-06-21T01:50:33.063Z,0.00
2018-06-21T01:51:33.036Z,0.00
2018-06-21T01:52:33.031Z,0.00
2018-06-21T01:53:32.987Z,0.00
2018-06-21T01:54:32.937Z,0.00
2018-06-21T01:55:32.908Z,0.00
2018-06-21T01:56:32.876Z,0.00
2018-06-21T01:57:32.846Z,0.00
2018-06-21T01:58:32.812Z,0.00
2018-06-21T01:59:32.788Z,0.00
2018-06-21T02:00:32.749Z,0.00
2018-06-21T02:01:32.718Z,0.00
2018-06-21T02:02:32.681Z,0.00
2018-06-21T02:03:32.653Z,0.00
2018-06-21T02:04:32.623Z,0.00
2018-06-21T02:05:32.589Z,0.00
2018-06-21T02:06:32.564Z,0.00
2018-06-21T02:07:32.549Z,0.00
2018-06-21T02:08:32.488Z,0.00
2018-06-21T02:09:32.460Z,0.00
2018-06-21T02:10:32.429Z,0.00
2018-06-21T02:11:32.408Z,0.00
2018-06-21T02:12:32.367Z,0.00
2018-06-21T02:13:32.333Z,0.00
2018-06-21T02:14:32.331Z,0.00
2018-06-21T02:15:32.275Z,0.00
2018-06-21T02:16:33.064Z,0.00
2018-06-21T02:17:32.203Z,0.00
2018-06-21T02:18:33.062Z,0.00
2018-06-21T02:19:32.151Z,0.00
2018-06-21T02:20:32.105Z,0.00
2018-06-21T02:21:32.071Z,0.00
2018-06-21T02:22:32.047Z,0.00
2018-06-21T02:23:32.010Z,0.00
2018-06-21T02:24:31.991Z,0.00
2018-06-21T02:25:31.942Z,0.00
2018-06-21T02:26:31.914Z,0.00
2018-06-21T02:27:31.906Z,0.00
2018-06-21T02:28:31.854Z,0.00
2018-06-21T02:29:31.830Z,0.00
2018-06-21T02:30:31.788Z,0.00
2018-06-21T02:31:31.750Z,0.00
2018-06-21T02:32:31.737Z,0.00
2018-06-21T02:33:31.688Z,0.00
2018-06-21T02:34:31.669Z,0.00
2018-06-21T02:35:31.624Z,0.00
2018-06-21T02:36:31.593Z,0.00
2018-06-21T02:37:31.563Z,0.00
2018-06-21T02:38:31.525Z,0.00
2018-06-21T02:39:31.497Z,0.00
2018-06-21T02:40:31.469Z,0.00
2018-06-21T02:41:31.434Z,0.00
2018-06-21T02:42:31.400Z,4.00
2018-06-21T02:43:31.403Z,0.00
2018-06-21T02:44:31.332Z,0.00
2018-06-21T02:45:31.301Z,0.00
2018-06-21T02:46:31.283Z,4.00
2018-06-21T02:47:31.236Z,0.00
2018-06-21T02:48:31.208Z,4.00
2018-06-21T02:49:31.173Z,4.00
2018-06-21T02:50:31.143Z,4.00
2018-06-21T02:51:31.115Z,4.00
2018-06-21T02:52:31.078Z,4.00
2018-06-21T02:53:31.077Z,8.00
2018-06-21T02:54:31.007Z,8.00
2018-06-21T02:55:30.999Z,8.00
2018-06-21T02:56:30.950Z,8.00
2018-06-21T02:57:30.914Z,8.00
2018-06-21T02:58:30.881Z,8.00
2018-06-21T02:59:30.849Z,12.00
2018-06-21T03:00:30.831Z,16.00
2018-06-21T03:01:30.791Z,12.00
2018-06-21T03:02:30.752Z,16.00
2018-06-21T03:03:30.743Z,20.00
2018-06-21T03:04:30.699Z,20.00
2018-06-21T03:05:30.655Z,20.00
2018-06-21T03:06:30.627Z,24.00
2018-06-21T03:07:30.591Z,28.00
2018-06-21T03:08:30.560Z,32.00
2018-06-21T03:09:30.526Z,32.00
2018-06-21T03:10:30.513Z,36.00
2018-06-21T03:11:30.479Z,40.00
2018-06-21T03:12:30.461Z,48.00
2018-06-21T03:13:30.397Z,48.00
2018-06-21T03:14:30.364Z,56.00
2018-06-21T03:15:30.334Z,56.00
2018-06-21T03:16:30.297Z,64.00
2018-06-21T03:17:30.278Z,68.00
2018-06-21T03:18:30.234Z,72.00
2018-06-21T03:19:30.201Z,80.00
2018-06-21T03:20:30.179Z,84.00
2018-06-21T03:21:30.179Z,92.00
2018-06-21T03:22:30.103Z,100.00
2018-06-21T03:23:30.072Z,108.00
2018-06-21T03:24:30.040Z,116.00
2018-06-21T03:25:30.011Z,120.00
2018-06-21T03:26:29.976Z,132.00
2018-06-21T03:27:29.943Z,140.00
2018-06-21T03:28:29.911Z,148.00
2018-06-21T03:29:29.877Z,160.00
2018-06-21T03:30:29.852Z,172.00
2018-06-21T03:31:29.809Z,180.00
2018-06-21T03:32:29.802Z,192.00
2018-06-21T03:33:29.751Z,208.00
2018-06-21T03:34:29.738Z,224.00
2018-06-21T03:35:29.686Z,236.00
2018-06-21T03:36:29.654Z,248.00
2018-06-21T03:37:29.648Z,268.00
2018-06-21T03:38:29.601Z,280.00
2018-06-21T03:39:29.566Z,296.00
2018-06-21T03:40:29.528Z,308.00
2018-06-21T03:41:29.496Z,316.00
2018-06-21T03:42:29.504Z,336.00
2018-06-21T03:43:29.432Z,368.00
2018-06-21T03:44:29.411Z,388.00
2018-06-21T03:45:29.364Z,396.00
2018-06-21T03:46:29.343Z,416.00
2018-06-21T03:47:29.312Z,460.00
2018-06-21T03:48:29.266Z,508.00
2018-06-21T03:49:29.237Z,540.00
2018-06-21T03:50:29.236Z,544.00
2018-06-21T03:51:29.172Z,544.00
2018-06-21T03:52:29.138Z,536.00
2018-06-21T03:53:29.116Z,556.00
2018-06-21T03:54:29.103Z,576.00
2018-06-21T03:55:29.058Z,608.00
2018-06-21T03:56:29.038Z,640.00
2018-06-21T03:57:28.992Z,668.00
2018-06-21T03:58:28.962Z,716.00
2018-06-21T03:59:28.913Z,792.00
2018-06-21T04:00:28.885Z,872.00
2018-06-21T04:01:28.851Z,924.00
2018-06-21T04:02:28.823Z,928.00
2018-06-21T04:03:28.801Z,932.00
2018-06-21T04:04:28.758Z,964.00
2018-06-21T04:05:28.918Z,1020.00
2018-06-21T04:06:28.690Z,1076.00
2018-06-21T04:07:28.662Z,1084.00
2018-06-21T04:08:28.686Z,1096.00
2018-06-21T04:09:28.597Z,1172.00
2018-06-21T04:10:28.568Z,1212.00
2018-06-21T04:11:28.550Z,1236.00
2018-06-21T04:12:28.507Z,1276.00
2018-06-21T04:13:28.468Z,1304.00
2018-06-21T04:14:28.461Z,1332.00
2018-06-21T04:15:28.459Z,1380.00
2018-06-21T04:16:28.377Z,1392.00
2018-06-21T04:17:28.359Z,1392.00
2018-06-21T04:18:28.318Z,1340.00
2018-06-21T04:19:28.293Z,1388.00
2018-06-21T04:20:28.252Z,1360.00
2018-06-21T04:21:28.217Z,1524.00
2018-06-21T04:22:28.194Z,1112.00
2018-06-21T04:23:28.182Z,932.00
2018-06-21T04:24:28.163Z,948.00
2018-06-21T04:25:28.094Z,976.00
2018-06-21T04:26:28.072Z,1040.00
2018-06-21T04:27:28.031Z,1084.00
2018-06-21T04:28:28.001Z,1124.00
2018-06-21T04:29:27.964Z,1164.00
2018-06-21T04:30:27.940Z,1172.00
2018-06-21T04:31:27.908Z,1100.00
2018-06-21T04:32:27.944Z,1168.00
2018-06-21T04:33:27.860Z,1112.00
2018-06-21T04:34:27.806Z,1036.00
2018-06-21T04:35:27.791Z,896.00
2018-06-21T04:36:27.749Z,808.00
2018-06-21T04:37:27.744Z,740.00
2018-06-21T04:38:27.683Z,700.00
2018-06-21T04:39:27.652Z,652.00
2018-06-21T04:40:27.638Z,684.00
2018-06-21T04:41:27.602Z,904.00
2018-06-21T04:42:27.561Z,1052.00
2018-06-21T04:43:27.550Z,1108.00
2018-06-21T04:44:27.495Z,1216.00
2018-06-21T04:45:27.460Z,1128.00
2018-06-21T04:46:27.457Z,1048.00
2018-06-21T04:47:27.404Z,1052.00
2018-06-21T04:48:27.372Z,884.00
2018-06-21T04:49:27.338Z,880.00
2018-06-21T04:50:27.315Z,852.00
2018-06-21T04:51:27.288Z,1100.00
2018-06-21T04:52:27.246Z,1284.00
2018-06-21T04:53:27.249Z,1192.00
2018-06-21T04:54:27.213Z,940.00
2018-06-21T04:55:27.151Z,904.00
2018-06-21T04:56:27.125Z,980.00
2018-06-21T04:57:27.082Z,1112.00
2018-06-21T04:58:27.054Z,1264.00
2018-06-21T04:59:27.038Z,1516.00
2018-06-21T05:00:26.992Z,1552.00
2018-06-21T05:01:26.970Z,1800.00
2018-06-21T05:02:27.058Z,1544.00
2018-06-21T05:03:27.599Z,1556.00
2018-06-21T05:04:26.863Z,1672.00
2018-06-21T05:05:26.848Z,1976.00
2018-06-21T05:06:26.843Z,2528.00
2018-06-21T05:07:26.779Z,2976.00
2018-06-21T05:08:26.751Z,2872.00
2018-06-21T05:09:26.722Z,2584.00
2018-06-21T05:10:26.692Z,2292.00
2018-06-21T05:11:26.652Z,1948.00
2018-06-21T05:12:26.633Z,1920.00
2018-06-21T05:13:26.584Z,1716.00
2018-06-21T05:14:26.553Z,1652.00
2018-06-21T05:15:26.527Z,1732.00
2018-06-21T05:16:26.487Z,1512.00
2018-06-21T05:17:26.465Z,1444.00
2018-06-21T05:18:26.449Z,1172.00
2018-06-21T05:19:26.411Z,920.00
2018-06-21T05:20:26.371Z,972.00
2018-06-21T05:21:26.341Z,1124.00
2018-06-21T05:22:26.346Z,1356.00
2018-06-21T05:23:26.287Z,1352.00
2018-06-21T05:24:26.294Z,1284.00
2018-06-21T05:25:26.225Z,1092.00
2018-06-21T05:26:26.205Z,876.00
2018-06-21T05:27:26.170Z,748.00
2018-06-21T05:28:26.120Z,812.00
2018-06-21T05:29:26.090Z,820.00
2018-06-21T05:30:26.057Z,680.00
2018-06-21T05:31:26.037Z,576.00
2018-06-21T05:32:25.994Z,480.00
2018-06-21T05:33:25.965Z,440.00
2018-06-21T05:34:25.930Z,392.00
2018-06-21T05:35:25.902Z,364.00
2018-06-21T05:36:25.866Z,292.00
2018-06-21T05:37:25.933Z,256.00
2018-06-21T05:38:25.810Z,248.00
2018-06-21T05:39:25.792Z,220.00
2018-06-21T05:40:25.751Z,208.00
2018-06-21T05:41:25.721Z,192.00
2018-06-21T05:42:25.685Z,180.00
2018-06-21T05:43:25.653Z,204.00
2018-06-21T05:44:25.657Z,224.00
2018-06-21T05:45:25.590Z,236.00
2018-06-21T05:46:25.560Z,292.00
2018-06-21T05:47:25.529Z,284.00
2018-06-21T05:48:25.498Z,256.00
2018-06-21T05:49:25.466Z,260.00
2018-06-21T05:50:25.432Z,256.00
2018-06-21T05:51:25.400Z,240.00
2018-06-21T05:52:25.368Z,240.00
2018-06-21T05:53:25.334Z,248.00
2018-06-21T05:54:25.305Z,236.00
2018-06-21T05:55:25.299Z,244.00
2018-06-21T05:56:25.241Z,252.00
2018-06-21T05:57:25.216Z,236.00
2018-06-21T05:58:25.181Z,216.00
2018-06-21T05:59:25.150Z,224.00
2018-06-21T06:00:25.109Z,220.00
2018-06-21T06:01:25.086Z,200.00
2018-06-21T06:02:25.052Z,180.00
2018-06-21T06:03:25.022Z,164.00
2018-06-21T06:04:24.986Z,176.00
2018-06-21T06:05:24.955Z,188.00
2018-06-21T06:06:24.920Z,172.00
2018-06-21T06:07:24.894Z,172.00
2018-06-21T06:08:24.899Z,176.00
2018-06-21T06:09:24.825Z,196.00
2018-06-21T06:10:24.816Z,216.00
2018-06-21T06:11:24.794Z,196.00
2018-06-21T06:12:24.733Z,188.00
2018-06-21T06:13:24.696Z,200.00
2018-06-21T06:14:24.666Z,204.00
2018-06-21T06:15:24.635Z,200.00
2018-06-21T06:16:24.601Z,212.00
2018-06-21T06:17:24.572Z,216.00
2018-06-21T06:18:24.541Z,220.00
2018-06-21T06:19:24.506Z,236.00
2018-06-21T06:20:24.474Z,232.00
2018-06-21T06:21:24.442Z,220.00
2018-06-21T06:22:24.412Z,236.00
2018-06-21T06:23:24.382Z,260.00
2018-06-21T06:24:24.345Z,280.00
2018-06-21T06:25:24.340Z,284.00
2018-06-21T06:26:24.279Z,344.00
2018-06-21T06:27:24.268Z,488.00
2018-06-21T06:28:24.218Z,468.00
2018-06-21T06:29:24.185Z,412.00
2018-06-21T06:30:24.153Z,404.00
2018-06-21T06:31:24.121Z,456.00
2018-06-21T06:32:24.089Z,472.00
2018-06-21T06:33:24.577Z,408.00
2018-06-21T06:34:24.026Z,384.00
2018-06-21T06:35:24.014Z,392.00
2018-06-21T06:36:23.959Z,572.00
2018-06-21T06:37:23.927Z,536.00
2018-06-21T06:38:23.898Z,600.00
2018-06-21T06:39:23.862Z,832.00
2018-06-21T06:40:23.885Z,820.00
2018-06-21T06:41:23.801Z,804.00
2018-06-21T06:42:23.769Z,820.00
2018-06-21T06:43:23.737Z,904.00
2018-06-21T06:44:23.704Z,900.00
2018-06-21T06:45:23.674Z,868.00
2018-06-21T06:46:23.642Z,900.00
2018-06-21T06:47:23.610Z,824.00
2018-06-21T06:48:23.576Z,952.00
2018-06-21T06:49:23.546Z,1020.00
2018-06-21T06:50:23.509Z,1020.00
2018-06-21T06:51:23.486Z,856.00
2018-06-21T06:52:23.468Z,832.00
2018-06-21T06:53:23.417Z,788.00
2018-06-21T06:54:23.437Z,996.00
2018-06-21T06:55:23.355Z,1068.00
2018-06-21T06:56:23.323Z,1156.00
2018-06-21T06:57:23.291Z,1192.00
2018-06-21T06:58:23.262Z,1096.00
2018-06-21T06:59:23.231Z,1060.00
2018-06-21T07:00:23.193Z,1104.00
2018-06-21T07:01:23.159Z,996.00
2018-06-21T07:02:23.132Z,852.00
2018-06-21T07:03:23.101Z,784.00
2018-06-21T07:04:23.067Z,784.00
2018-06-21T07:05:23.039Z,896.00
2018-06-21T07:06:23.008Z,984.00
2018-06-21T07:07:22.968Z,932.00
2018-06-21T07:08:22.953Z,796.00
2018-06-21T07:09:22.919Z,772.00
2018-06-21T07:10:22.879Z,784.00
2018-06-21T07:11:22.847Z,820.00
2018-06-21T07:12:22.845Z,784.00
2018-06-21T07:13:22.780Z,704.00
2018-06-21T07:14:22.827Z,628.00
2018-06-21T07:15:22.722Z,640.00
2018-06-21T07:16:22.686Z,688.00
2018-06-21T07:17:22.656Z,796.00
2018-06-21T07:18:22.625Z,732.00
2018-06-21T07:19:22.594Z,764.00
2018-06-21T07:20:22.612Z,788.00
2018-06-21T07:21:22.527Z,812.00
2018-06-21T07:22:22.497Z,1052.00
2018-06-21T07:23:22.465Z,1168.00
2018-06-21T07:24:22.429Z,1196.00
2018-06-21T07:25:22.401Z,1200.00
2018-06-21T07:26:22.367Z,1168.00
2018-06-21T07:27:22.340Z,904.00
2018-06-21T07:28:22.349Z,816.00
2018-06-21T07:29:22.276Z,960.00
2018-06-21T07:30:22.245Z,1072.00
2018-06-21T07:31:22.213Z,780.00
2018-06-21T07:32:22.183Z,624.00
2018-06-21T07:33:22.149Z,828.00
2018-06-21T07:34:22.119Z,804.00
2018-06-21T07:35:22.092Z,728.00
2018-06-21T07:36:22.078Z,772.00
2018-06-21T07:37:22.024Z,816.00
2018-06-21T07:38:21.996Z,904.00
2018-06-21T07:39:21.959Z,996.00
2018-06-21T07:40:21.929Z,1368.00
2018-06-21T07:41:21.896Z,1652.00
2018-06-21T07:42:21.861Z,1572.00
2018-06-21T07:43:21.827Z,1816.00
2018-06-21T07:44:21.803Z,1980.00
2018-06-21T07:45:21.772Z,2076.00
2018-06-21T07:46:21.738Z,1792.00
2018-06-21T07:47:21.706Z,1580.00
2018-06-21T07:48:21.678Z,1792.00
2018-06-21T07:49:21.644Z,1992.00
2018-06-21T07:50:21.612Z,1952.00
2018-06-21T07:51:21.575Z,2052.00
2018-06-21T07:52:21.571Z,1820.00
2018-06-21T07:53:21.517Z,1476.00
2018-06-21T07:54:21.487Z,1416.00
2018-06-21T07:55:21.455Z,1236.00
2018-06-21T07:56:21.426Z,1252.00
2018-06-21T07:57:21.394Z,1260.00
2018-06-21T07:58:21.368Z,1656.00
2018-06-21T07:59:21.331Z,1752.00
2018-06-21T08:00:21.315Z,1792.00
2018-06-21T08:01:21.265Z,1736.00
2018-06-21T08:02:21.237Z,1828.00
2018-06-21T08:03:21.200Z,2076.00
2018-06-21T08:04:21.176Z,1956.00
2018-06-21T08:05:21.145Z,1596.00
2018-06-21T08:06:21.110Z,1332.00
2018-06-21T08:07:21.076Z,1280.00
2018-06-21T08:08:21.072Z,1496.00
2018-06-21T08:09:21.012Z,1824.00
2018-06-21T08:10:20.983Z,1992.00
2018-06-21T08:11:20.956Z,1984.00
2018-06-21T08:12:20.920Z,2240.00
2018-06-21T08:13:20.901Z,2376.00
2018-06-21T08:14:20.858Z,2436.00
2018-06-21T08:15:20.820Z,2668.00
2018-06-21T08:16:20.798Z,2960.00
2018-06-21T08:17:20.764Z,2696.00
2018-06-21T08:18:20.734Z,2816.00
2018-06-21T08:19:20.698Z,3264.00
2018-06-21T08:20:20.676Z,3520.00
2018-06-21T08:21:20.650Z,3620.00
2018-06-21T08:22:20.609Z,3468.00
2018-06-21T08:23:20.643Z,3860.00
2018-06-21T08:24:20.579Z,4508.00
2018-06-21T08:25:20.516Z,4584.00
2018-06-21T08:26:20.486Z,4376.00
2018-06-21T08:27:20.453Z,4184.00
2018-06-21T08:28:20.424Z,4008.00
2018-06-21T08:29:20.390Z,3952.00
2018-06-21T08:30:20.362Z,3792.00
2018-06-21T08:31:20.329Z,4300.00
2018-06-21T08:32:20.305Z,4796.00
2018-06-21T08:33:20.271Z,5192.00
2018-06-21T08:34:20.238Z,5008.00
2018-06-21T08:35:20.206Z,5092.00
2018-06-21T08:36:20.178Z,5264.00
2018-06-21T08:37:20.146Z,4936.00
2018-06-21T08:38:20.118Z,5276.00
2018-06-21T08:39:20.087Z,5200.00
2018-06-21T08:40:20.055Z,5304.00
2018-06-21T08:41:20.026Z,4928.00
2018-06-21T08:42:19.997Z,4168.00
2018-06-21T08:43:19.966Z,3968.00
2018-06-21T08:44:19.933Z,4928.00
2018-06-21T08:45:19.899Z,4916.00
2018-06-21T08:46:19.885Z,4916.00
2018-06-21T08:47:19.843Z,6320.00
2018-06-21T08:48:19.812Z,7588.00
2018-06-21T08:49:19.780Z,5916.00
2018-06-21T08:50:19.751Z,6468.00
2018-06-21T08:51:19.741Z,12308.00
2018-06-21T08:52:19.692Z,7304.00
2018-06-21T08:53:20.000Z,5652.00
2018-06-21T08:54:20.173Z,5808.00
2018-06-21T08:55:19.602Z,5864.00
2018-06-21T08:56:19.566Z,6652.00
2018-06-21T08:57:19.569Z,10096.00
2018-06-21T08:58:19.557Z,9556.00
2018-06-21T08:59:19.483Z,8596.00
2018-06-21T09:00:19.455Z,6860.00
2018-06-21T09:01:19.427Z,8456.00
2018-06-21T09:02:19.398Z,8480.00
2018-06-21T09:03:19.367Z,5884.00
2018-06-21T09:04:19.339Z,11416.00
2018-06-21T09:05:19.315Z,5536.00
2018-06-21T09:06:19.280Z,5440.00
2018-06-21T09:07:19.258Z,11412.00
2018-06-21T09:08:19.221Z,12728.00
2018-06-21T09:09:19.193Z,11284.00
2018-06-21T09:10:19.160Z,12468.00
2018-06-21T09:11:19.158Z,11400.00
2018-06-21T09:12:19.118Z,8812.00
2018-06-21T09:13:19.078Z,3560.00
2018-06-21T09:14:19.054Z,3432.00
2018-06-21T09:15:19.061Z,4172.00
2018-06-21T09:16:19.004Z,5288.00
2018-06-21T09:17:18.979Z,6328.00
2018-06-21T09:18:18.934Z,6768.00
2018-06-21T09:19:18.910Z,11004.00
2018-06-21T09:20:18.882Z,14164.00
2018-06-21T09:21:18.858Z,12888.00
2018-06-21T09:22:18.825Z,9628.00
2018-06-21T09:23:18.795Z,13552.00
2018-06-21T09:24:18.769Z,12964.00
2018-06-21T09:25:18.742Z,13284.00
2018-06-21T09:26:18.716Z,13116.00
2018-06-21T09:27:18.687Z,5788.00
2018-06-21T09:28:18.658Z,10536.00
2018-06-21T09:29:18.630Z,10764.00
2018-06-21T09:30:18.606Z,9244.00
2018-06-21T09:31:18.576Z,4312.00
2018-06-21T09:32:18.550Z,3772.00
2018-06-21T09:33:18.561Z,4076.00
2018-06-21T09:34:18.496Z,8176.00
2018-06-21T09:35:18.471Z,12220.00
2018-06-21T09:36:18.444Z,4720.00
2018-06-21T09:37:18.412Z,4312.00
2018-06-21T09:38:18.388Z,4156.00
2018-06-21T09:39:18.362Z,3920.00
2018-06-21T09:40:18.333Z,3668.00
2018-06-21T09:41:18.357Z,3688.00
2018-06-21T09:42:18.275Z,3660.00
2018-06-21T09:43:18.247Z,4080.00
2018-06-21T09:44:18.220Z,4468.00
2018-06-21T09:45:18.192Z,5212.00
2018-06-21T09:46:18.161Z,12580.00
2018-06-21T09:47:18.133Z,12176.00
2018-06-21T09:48:18.132Z,12068.00
2018-06-21T09:49:18.077Z,12260.00
2018-06-21T09:50:18.047Z,13084.00
2018-06-21T09:51:18.024Z,11588.00
2018-06-21T09:52:17.993Z,6352.00
2018-06-21T09:53:17.963Z,6744.00
2018-06-21T09:54:17.938Z,12316.00
2018-06-21T09:55:18.757Z,10860.00
2018-06-21T09:56:17.880Z,11396.00
2018-06-21T09:57:17.853Z,11332.00
2018-06-21T09:58:17.843Z,11532.00
2018-06-21T09:59:17.799Z,11324.00
2018-06-21T10:00:17.775Z,11872.00
2018-06-21T10:01:17.745Z,11764.00
2018-06-21T10:02:17.718Z,11568.00
2018-06-21T10:03:17.695Z,11144.00
2018-06-21T10:04:17.665Z,3844.00
2018-06-21T10:05:17.639Z,11912.00
2018-06-21T10:06:17.615Z,11636.00
2018-06-21T10:07:17.586Z,11608.00
2018-06-21T10:08:17.561Z,4848.00
2018-06-21T10:09:17.562Z,7904.00
2018-06-21T10:10:17.511Z,4032.00
2018-06-21T10:11:17.489Z,3988.00
2018-06-21T10:12:17.450Z,4548.00
2018-06-21T10:13:17.431Z,12848.00
2018-06-21T10:14:17.399Z,6776.00
2018-06-21T10:15:17.376Z,11976.00
2018-06-21T10:16:17.373Z,5884.00
2018-06-21T10:17:17.320Z,5216.00
2018-06-21T10:18:17.291Z,12660.00
2018-06-21T10:19:17.267Z,5152.00
2018-06-21T10:20:17.240Z,5636.00
2018-06-21T10:21:17.210Z,6012.00
2018-06-21T10:22:17.199Z,8652.00
2018-06-21T10:23:17.161Z,10608.00
2018-06-21T10:24:17.130Z,12120.00
2018-06-21T10:25:17.110Z,12216.00
2018-06-21T10:26:17.079Z,12192.00
2018-06-21T10:27:17.054Z,12064.00
2018-06-21T10:28:17.028Z,12012.00
2018-06-21T10:29:16.999Z,12244.00
2018-06-21T10:30:16.970Z,12380.00
2018-06-21T10:31:16.944Z,12556.00
2018-06-21T10:32:16.916Z,12384.00
2018-06-21T10:33:16.891Z,12360.00
2018-06-21T10:34:16.862Z,12648.00
2018-06-21T10:35:16.865Z,12312.00
2018-06-21T10:36:16.814Z,12400.00
2018-06-21T10:37:16.813Z,12268.00
2018-06-21T10:38:16.762Z,3952.00
2018-06-21T10:39:16.736Z,12472.00
2018-06-21T10:40:16.710Z,12292.00
2018-06-21T10:41:16.682Z,12388.00
2018-06-21T10:42:16.661Z,12412.00
2018-06-21T10:43:16.633Z,12544.00
2018-06-21T10:44:16.637Z,12068.00
2018-06-21T10:45:16.582Z,11316.00
2018-06-21T10:46:16.559Z,12104.00
2018-06-21T10:47:16.534Z,12164.00
2018-06-21T10:48:16.500Z,11956.00
2018-06-21T10:49:16.481Z,11700.00
2018-06-21T10:50:16.456Z,11892.00
2018-06-21T10:51:16.430Z,12432.00
2018-06-21T10:52:16.407Z,9520.00
2018-06-21T10:53:16.378Z,4096.00
2018-06-21T10:54:16.356Z,12476.00
2018-06-21T10:55:16.330Z,5204.00
2018-06-21T10:56:16.304Z,10708.00
2018-06-21T10:57:16.283Z,12220.00
2018-06-21T10:58:16.257Z,12124.00
2018-06-21T10:59:16.227Z,12184.00
2018-06-21T11:00:16.216Z,12512.00
2018-06-21T11:01:16.177Z,12864.00
2018-06-21T11:02:16.150Z,12752.00
2018-06-21T11:03:16.140Z,7556.00
2018-06-21T11:04:16.098Z,12208.00
2018-06-21T11:05:16.082Z,12296.00
2018-06-21T11:06:16.075Z,12428.00
2018-06-21T11:07:16.023Z,12928.00
2018-06-21T11:08:15.996Z,13004.00
2018-06-21T11:09:15.991Z,12572.00
2018-06-21T11:10:15.946Z,12608.00
2018-06-21T11:11:15.918Z,12560.00
2018-06-21T11:12:15.925Z,12940.00
2018-06-21T11:13:15.869Z,5816.00
2018-06-21T11:14:15.848Z,10764.00
2018-06-21T11:15:15.817Z,13384.00
2018-06-21T11:16:15.819Z,5348.00
2018-06-21T11:17:15.771Z,13208.00
2018-06-21T11:18:15.741Z,13632.00
2018-06-21T11:19:15.721Z,5584.00
2018-06-21T11:20:15.696Z,9012.00
2018-06-21T11:21:15.672Z,12960.00
2018-06-21T11:22:15.645Z,12588.00
2018-06-21T11:23:15.621Z,12428.00
2018-06-21T11:24:15.597Z,12372.00
2018-06-21T11:25:15.584Z,12380.00
2018-06-21T11:26:15.544Z,10604.00
2018-06-21T11:27:15.519Z,13104.00
2018-06-21T11:28:15.496Z,4976.00
2018-06-21T11:29:15.502Z,4268.00
2018-06-21T11:30:15.473Z,4276.00
2018-06-21T11:31:15.418Z,5516.00
2018-06-21T11:32:15.393Z,13164.00
2018-06-21T11:33:15.370Z,7792.00
2018-06-21T11:34:15.345Z,12560.00
2018-06-21T11:35:15.336Z,12580.00
2018-06-21T11:36:15.292Z,13132.00
2018-06-21T11:37:15.267Z,5688.00
2018-06-21T11:38:15.317Z,5116.00
2018-06-21T11:39:15.279Z,8884.00
2018-06-21T11:40:15.191Z,9092.00
2018-06-21T11:41:15.176Z,4260.00
2018-06-21T11:42:15.135Z,4136.00
2018-06-21T11:43:15.134Z,13188.00
2018-06-21T11:44:15.094Z,13648.00
2018-06-21T11:45:15.064Z,13524.00
2018-06-21T11:46:15.035Z,13304.00
2018-06-21T11:47:15.013Z,12768.00
2018-06-21T11:48:15.017Z,12268.00
2018-06-21T11:49:14.981Z,11948.00
2018-06-21T11:50:14.936Z,11736.00
2018-06-21T11:51:14.909Z,11928.00
2018-06-21T11:52:14.923Z,11576.00
2018-06-21T11:53:14.860Z,11608.00
2018-06-21T11:54:14.856Z,11464.00
2018-06-21T11:55:14.818Z,11596.00
2018-06-21T11:56:14.794Z,11616.00
2018-06-21T11:57:14.777Z,11544.00
2018-06-21T11:58:14.743Z,11336.00
2018-06-21T11:59:14.711Z,11172.00
2018-06-21T12:00:14.692Z,11040.00
2018-06-21T12:01:14.660Z,10908.00
2018-06-21T12:02:14.639Z,11492.00
2018-06-21T12:03:14.616Z,11864.00
2018-06-21T12:04:14.588Z,11952.00
2018-06-21T12:05:14.565Z,4236.00
2018-06-21T12:06:14.541Z,11920.00
2018-06-21T12:07:14.526Z,4256.00
2018-06-21T12:08:14.528Z,12408.00
2018-06-21T12:09:14.467Z,10380.00
2018-06-21T12:10:14.435Z,8928.00
2018-06-21T12:11:14.418Z,11376.00
2018-06-21T12:12:14.390Z,11496.00
2018-06-21T12:13:14.368Z,12116.00
2018-06-21T12:14:14.341Z,5016.00
2018-06-21T12:15:14.322Z,7384.00
2018-06-21T12:16:14.284Z,5452.00
2018-06-21T12:17:14.292Z,4880.00
2018-06-21T12:18:14.246Z,5208.00
2018-06-21T12:19:14.216Z,11244.00
2018-06-21T12:20:14.190Z,9664.00
2018-06-21T12:21:14.167Z,6156.00
2018-06-21T12:22:14.138Z,11872.00
2018-06-21T12:23:14.110Z,11032.00
2018-06-21T12:24:14.090Z,10840.00